Terminal Aerodrome Forecast
Issued by NWS Sterling, VA

Current Version | Previous Version | Graphics & Text | Print | Product List | Glossary On
Versions: 1 2 3 4 5 6 7 8 9 10 11 12 13 14 15 16 17 18 19 20 21 22 23 24 25
000
FTUS41 KLWX 222050 AAA
TAFIAD
TAF AMD
KIAD 222050Z 2221/2324 15007KT P6SM FEW250
     FM230900 16004KT 3SM BR BKN250
     FM231000 16004KT 2SM BR BKN110
     FM231300 15005KT 3SM BR BKN020
     FM231400 16006KT P6SM BKN035
     FM231700 16010KT P6SM BKN045=

USA.gov is the U.S. government's official web portal to all federal, state and local government web resources and services.